sensor_id;sensor_type;location;lat;lon;timestamp;P1;durP1;ratioP1;P2;durP2;ratioP2
11098;SDS011;12223;42.650;23.364;2023-03-20T00:00:41;15.50;;;14.00;;
11098;SDS011;12223;42.650;23.364;2023-03-20T00:03:09;19.60;;;15.37;;
11098;SDS011;12223;42.650;23.364;2023-03-20T00:05:37;17.60;;;15.57;;
11098;SDS011;12223;42.650;23.364;2023-03-20T00:08:04;17.33;;;15.03;;
11098;SDS011;12223;42.650;23.364;2023-03-20T00:10:33;15.90;;;14.20;;
11098;SDS011;12223;42.650;23.364;2023-03-20T00:13:03;16.50;;;14.87;;
11098;SDS011;12223;42.650;23.364;2023-03-20T00:15:32;16.70;;;15.10;;
11098;SDS011;12223;42.650;23.364;2023-03-20T00:18:02;17.63;;;15.83;;
11098;SDS011;12223;42.650;23.364;2023-03-20T00:20:29;17.20;;;15.40;;
11098;SDS011;12223;42.650;23.364;2023-03-20T00:22:55;17.77;;;15.97;;
11098;SDS011;12223;42.650;23.364;2023-03-20T00:25:23;21.80;;;17.03;;
11098;SDS011;12223;42.650;23.364;2023-03-20T00:27:51;18.93;;;15.97;;
11098;SDS011;12223;42.650;23.364;2023-03-20T00:30:20;17.77;;;14.93;;
11098;SDS011;12223;42.650;23.364;2023-03-20T00:32:52;18.47;;;14.83;;
11098;SDS011;12223;42.650;23.364;2023-03-20T00:35:24;20.47;;;16.40;;
11098;SDS011;12223;42.650;23.364;2023-03-20T00:37:53;18.20;;;15.20;;
11098;SDS011;12223;42.650;23.364;2023-03-20T00:40:21;22.70;;;16.50;;
11098;SDS011;12223;42.650;23.364;2023-03-20T00:42:55;18.80;;;15.73;;
11098;SDS011;12223;42.650;23.364;2023-03-20T00:45:26;17.53;;;15.07;;
11098;SDS011;12223;42.650;23.364;2023-03-20T00:47:54;20.60;;;16.53;;
11098;SDS011;12223;42.650;23.364;2023-03-20T00:50:23;18.87;;;15.80;;
11098;SDS011;12223;42.650;23.364;2023-03-20T00:52:53;18.33;;;15.47;;
11098;SDS011;12223;42.650;23.364;2023-03-20T00:55:20;20.20;;;17.13;;
11098;SDS011;12223;42.650;23.364;2023-03-20T00:57:49;23.73;;;17.27;;
11098;SDS011;12223;42.650;23.364;2023-03-20T01:00:20;21.27;;;16.57;;
11098;SDS011;12223;42.650;23.364;2023-03-20T01:02:53;23.73;;;18.37;;
11098;SDS011;12223;42.650;23.364;2023-03-20T01:05:21;22.87;;;16.87;;
11098;SDS011;12223;42.650;23.364;2023-03-20T01:07:48;16.13;;;14.00;;
11098;SDS011;12223;42.650;23.364;2023-03-20T01:10:16;18.90;;;14.87;;
11098;SDS011;12223;42.650;23.364;2023-03-20T01:12:43;17.43;;;13.37;;
11098;SDS011;12223;42.650;23.364;2023-03-20T01:15:19;20.50;;;14.33;;
11098;SDS011;12223;42.650;23.364;2023-03-20T01:17:48;16.50;;;13.97;;
11098;SDS011;12223;42.650;23.364;2023-03-20T01:20:18;16.97;;;13.30;;
11098;SDS011;12223;42.650;23.364;2023-03-20T01:22:47;15.47;;;12.17;;
11098;SDS011;12223;42.650;23.364;2023-03-20T01:25:14;13.37;;;11.83;;
11098;SDS011;12223;42.650;23.364;2023-03-20T01:27:42;17.33;;;11.57;;
11098;SDS011;12223;42.650;23.364;2023-03-20T01:30:16;11.73;;;10.53;;
11098;SDS011;12223;42.650;23.364;2023-03-20T01:32:46;17.63;;;10.83;;
11098;SDS011;12223;42.650;23.364;2023-03-20T01:35:13;12.60;;;10.83;;
11098;SDS011;12223;42.650;23.364;2023-03-20T01:37:47;12.17;;;10.90;;
11098;SDS011;12223;42.650;23.364;2023-03-20T01:40:30;13.17;;;11.87;;
11098;SDS011;12223;42.650;23.364;2023-03-20T01:42:59;15.43;;;11.03;;
11098;SDS011;12223;42.650;23.364;2023-03-20T01:45:28;13.67;;;11.53;;
11098;SDS011;12223;42.650;23.364;2023-03-20T01:47:58;15.80;;;14.30;;
11098;SDS011;12223;42.650;23.364;2023-03-20T01:50:26;18.47;;;16.87;;
11098;SDS011;12223;42.650;23.364;2023-03-20T01:53:01;16.13;;;14.53;;
11098;SDS011;12223;42.650;23.364;2023-03-20T01:55:32;16.33;;;14.63;;
11098;SDS011;12223;42.650;23.364;2023-03-20T01:58:03;18.77;;;14.07;;
11098;SDS011;12223;42.650;23.364;2023-03-20T02:00:34;16.33;;;13.40;;
11098;SDS011;12223;42.650;23.364;2023-03-20T02:03:02;18.97;;;17.03;;
11098;SDS011;12223;42.650;23.364;2023-03-20T02:05:31;19.67;;;17.73;;
11098;SDS011;12223;42.650;23.364;2023-03-20T02:08:04;17.53;;;15.63;;
11098;SDS011;12223;42.650;23.364;2023-03-20T02:10:42;19.33;;;17.17;;
11098;SDS011;12223;42.650;23.364;2023-03-20T02:13:10;22.73;;;18.87;;
11098;SDS011;12223;42.650;23.364;2023-03-20T02:15:51;31.80;;;21.40;;
11098;SDS011;12223;42.650;23.364;2023-03-20T02:18:22;20.13;;;18.20;;
11098;SDS011;12223;42.650;23.364;2023-03-20T02:20:54;19.23;;;13.93;;
11098;SDS011;12223;42.650;23.364;2023-03-20T02:23:48;13.77;;;12.17;;
11098;SDS011;12223;42.650;23.364;2023-03-20T02:26:35;15.70;;;13.83;;
11098;SDS011;12223;42.650;23.364;2023-03-20T02:35:35;15.30;;;12.77;;
11098;SDS011;12223;42.650;23.364;2023-03-20T02:41:14;18.17;;;15.70;;
11098;SDS011;12223;42.650;23.364;2023-03-20T02:43:53;17.23;;;15.43;;
11098;SDS011;12223;42.650;23.364;2023-03-20T02:46:30;18.80;;;17.00;;
11098;SDS011;12223;42.650;23.364;2023-03-20T02:49:08;19.97;;;15.43;;
11098;SDS011;12223;42.650;23.364;2023-03-20T02:51:44;23.20;;;21.30;;
11098;SDS011;12223;42.650;23.364;2023-03-20T02:54:21;14.53;;;13.00;;
11098;SDS011;12223;42.650;23.364;2023-03-20T02:56:57;18.70;;;17.07;;
11098;SDS011;12223;42.650;23.364;2023-03-20T02:59:29;36.40;;;34.20;;
11098;SDS011;12223;42.650;23.364;2023-03-20T03:02:03;13.63;;;12.23;;
11098;SDS011;12223;42.650;23.364;2023-03-20T03:04:34;16.60;;;14.67;;
11098;SDS011;12223;42.650;23.364;2023-03-20T03:07:03;18.23;;;16.40;;
11098;SDS011;12223;42.650;23.364;2023-03-20T03:09:39;16.10;;;14.70;;
11098;SDS011;12223;42.650;23.364;2023-03-20T03:12:11;14.77;;;13.20;;
11098;SDS011;12223;42.650;23.364;2023-03-20T03:14:43;15.07;;;13.50;;
11098;SDS011;12223;42.650;23.364;2023-03-20T03:17:12;16.60;;;14.17;;
11098;SDS011;12223;42.650;23.364;2023-03-20T03:19:42;18.13;;;15.50;;
11098;SDS011;12223;42.650;23.364;2023-03-20T03:22:13;20.67;;;15.67;;
11098;SDS011;12223;42.650;23.364;2023-03-20T03:24:43;22.73;;;16.00;;
11098;SDS011;12223;42.650;23.364;2023-03-20T03:27:12;19.30;;;15.93;;
11098;SDS011;12223;42.650;23.364;2023-03-20T03:29:45;19.93;;;15.73;;
11098;SDS011;12223;42.650;23.364;2023-03-20T03:32:25;19.77;;;17.10;;
11098;SDS011;12223;42.650;23.364;2023-03-20T03:34:54;23.87;;;21.30;;
11098;SDS011;12223;42.650;23.364;2023-03-20T03:37:27;23.20;;;19.03;;
11098;SDS011;12223;42.650;23.364;2023-03-20T03:40:09;21.17;;;17.90;;
11098;SDS011;12223;42.650;23.364;2023-03-20T03:42:46;19.03;;;17.03;;
11098;SDS011;12223;42.650;23.364;2023-03-20T03:45:20;17.03;;;13.87;;
11098;SDS011;12223;42.650;23.364;2023-03-20T03:47:54;21.03;;;18.87;;
11098;SDS011;12223;42.650;23.364;2023-03-20T03:50:27;22.00;;;15.33;;
11098;SDS011;12223;42.650;23.364;2023-03-20T03:52:57;16.03;;;13.00;;
11098;SDS011;12223;42.650;23.364;2023-03-20T03:55:30;21.70;;;16.20;;
11098;SDS011;12223;42.650;23.364;2023-03-20T03:58:02;21.57;;;18.77;;
11098;SDS011;12223;42.650;23.364;2023-03-20T04:00:33;28.47;;;21.87;;
11098;SDS011;12223;42.650;23.364;2023-03-20T04:03:01;23.50;;;21.07;;
11098;SDS011;12223;42.650;23.364;2023-03-20T04:05:31;20.40;;;17.57;;
11098;SDS011;12223;42.650;23.364;2023-03-20T04:08:03;25.10;;;19.20;;
11098;SDS011;12223;42.650;23.364;2023-03-20T04:10:33;19.60;;;16.43;;
11098;SDS011;12223;42.650;23.364;2023-03-20T04:12:59;21.80;;;19.50;;
11098;SDS011;12223;42.650;23.364;2023-03-20T04:15:26;19.37;;;15.90;;
11098;SDS011;12223;42.650;23.364;2023-03-20T04:17:53;17.53;;;15.73;;
11098;SDS011;12223;42.650;23.364;2023-03-20T04:20:20;17.80;;;15.90;;
11098;SDS011;12223;42.650;23.364;2023-03-20T04:22:47;21.90;;;19.70;;
11098;SDS011;12223;42.650;23.364;2023-03-20T04:25:15;23.20;;;20.97;;
11098;SDS011;12223;42.650;23.364;2023-03-20T04:27:44;30.23;;;27.47;;
11098;SDS011;12223;42.650;23.364;2023-03-20T04:30:11;19.00;;;16.97;;
11098;SDS011;12223;42.650;23.364;2023-03-20T04:32:38;20.30;;;15.90;;
11098;SDS011;12223;42.650;23.364;2023-03-20T04:35:05;21.10;;;18.93;;
11098;SDS011;12223;42.650;23.364;2023-03-20T04:37:33;22.03;;;16.90;;
11098;SDS011;12223;42.650;23.364;2023-03-20T04:40:00;24.47;;;22.10;;
11098;SDS011;12223;42.650;23.364;2023-03-20T04:42:28;21.30;;;18.57;;
11098;SDS011;12223;42.650;23.364;2023-03-20T04:44:56;17.77;;;14.73;;
11098;SDS011;12223;42.650;23.364;2023-03-20T04:47:22;36.50;;;33.37;;
11098;SDS011;12223;42.650;23.364;2023-03-20T04:49:49;18.30;;;14.40;;
11098;SDS011;12223;42.650;23.364;2023-03-20T04:52:16;34.07;;;31.27;;
11098;SDS011;12223;42.650;23.364;2023-03-20T04:54:43;25.53;;;20.97;;
11098;SDS011;12223;42.650;23.364;2023-03-20T04:57:10;19.63;;;16.50;;
11098;SDS011;12223;42.650;23.364;2023-03-20T04:59:36;23.70;;;15.90;;
11098;SDS011;12223;42.650;23.364;2023-03-20T05:02:04;23.93;;;16.43;;
11098;SDS011;12223;42.650;23.364;2023-03-20T05:04:31;19.30;;;17.03;;
11098;SDS011;12223;42.650;23.364;2023-03-20T05:06:58;24.37;;;18.17;;
11098;SDS011;12223;42.650;23.364;2023-03-20T05:09:25;20.23;;;18.07;;
11098;SDS011;12223;42.650;23.364;2023-03-20T05:11:51;18.70;;;16.80;;
11098;SDS011;12223;42.650;23.364;2023-03-20T05:14:18;20.07;;;18.07;;
11098;SDS011;12223;42.650;23.364;2023-03-20T05:16:45;25.57;;;23.10;;
11098;SDS011;12223;42.650;23.364;2023-03-20T05:19:13;21.03;;;17.73;;
11098;SDS011;12223;42.650;23.364;2023-03-20T05:21:40;24.27;;;18.40;;
11098;SDS011;12223;42.650;23.364;2023-03-20T05:24:07;15.93;;;14.17;;
11098;SDS011;12223;42.650;23.364;2023-03-20T05:26:34;19.20;;;16.13;;
11098;SDS011;12223;42.650;23.364;2023-03-20T05:29:00;19.20;;;14.40;;
11098;SDS011;12223;42.650;23.364;2023-03-20T05:31:27;18.83;;;15.50;;
11098;SDS011;12223;42.650;23.364;2023-03-20T05:33:54;22.37;;;18.23;;
11098;SDS011;12223;42.650;23.364;2023-03-20T05:36:22;25.27;;;19.23;;
11098;SDS011;12223;42.650;23.364;2023-03-20T05:38:49;23.77;;;16.43;;
11098;SDS011;12223;42.650;23.364;2023-03-20T05:41:16;17.70;;;14.37;;
11098;SDS011;12223;42.650;23.364;2023-03-20T05:43:43;15.40;;;14.00;;
11098;SDS011;12223;42.650;23.364;2023-03-20T05:46:09;18.03;;;14.37;;
11098;SDS011;12223;42.650;23.364;2023-03-20T05:48:36;12.00;;;10.47;;
11098;SDS011;12223;42.650;23.364;2023-03-20T05:51:03;17.37;;;15.73;;
11098;SDS011;12223;42.650;23.364;2023-03-20T05:53:32;14.77;;;12.47;;
11098;SDS011;12223;42.650;23.364;2023-03-20T05:55:59;16.70;;;13.97;;
11098;SDS011;12223;42.650;23.364;2023-03-20T05:58:25;14.68;;;12.00;;
11098;SDS011;12223;42.650;23.364;2023-03-20T06:00:55;18.08;;;12.73;;
11098;SDS011;12223;42.650;23.364;2023-03-20T06:03:22;14.77;;;13.38;;
11098;SDS011;12223;42.650;23.364;2023-03-20T06:05:49;18.20;;;13.18;;
11098;SDS011;12223;42.650;23.364;2023-03-20T06:08:16;14.63;;;12.88;;
11098;SDS011;12223;42.650;23.364;2023-03-20T06:10:44;17.23;;;14.55;;
11098;SDS011;12223;42.650;23.364;2023-03-20T06:13:11;16.48;;;14.23;;
11098;SDS011;12223;42.650;23.364;2023-03-20T06:15:38;18.60;;;14.95;;
11098;SDS011;12223;42.650;23.364;2023-03-20T06:18:05;23.83;;;18.13;;
11098;SDS011;12223;42.650;23.364;2023-03-20T06:20:31;32.67;;;19.70;;
11098;SDS011;12223;42.650;23.364;2023-03-20T06:22:58;30.13;;;14.40;;
11098;SDS011;12223;42.650;23.364;2023-03-20T06:25:25;36.42;;;15.40;;
11098;SDS011;12223;42.650;23.364;2023-03-20T06:27:54;18.52;;;14.57;;
11098;SDS011;12223;42.650;23.364;2023-03-20T06:30:21;23.23;;;14.65;;
11098;SDS011;12223;42.650;23.364;2023-03-20T06:32:48;17.17;;;15.35;;
11098;SDS011;12223;42.650;23.364;2023-03-20T06:35:15;20.05;;;15.15;;
11098;SDS011;12223;42.650;23.364;2023-03-20T06:37:43;25.60;;;16.30;;
11098;SDS011;12223;42.650;23.364;2023-03-20T06:40:10;32.50;;;17.10;;
11098;SDS011;12223;42.650;23.364;2023-03-20T06:42:37;29.00;;;18.73;;
11098;SDS011;12223;42.650;23.364;2023-03-20T06:45:06;30.00;;;21.05;;
11098;SDS011;12223;42.650;23.364;2023-03-20T06:47:35;31.45;;;20.60;;
11098;SDS011;12223;42.650;23.364;2023-03-20T06:50:02;20.08;;;17.98;;
11098;SDS011;12223;42.650;23.364;2023-03-20T06:52:29;24.45;;;18.70;;
11098;SDS011;12223;42.650;23.364;2023-03-20T06:54:56;25.85;;;21.88;;
11098;SDS011;12223;42.650;23.364;2023-03-20T06:57:25;29.20;;;17.43;;
11098;SDS011;12223;42.650;23.364;2023-03-20T06:59:52;25.63;;;16.80;;
11098;SDS011;12223;42.650;23.364;2023-03-20T07:02:20;23.63;;;16.73;;
11098;SDS011;12223;42.650;23.364;2023-03-20T07:04:47;16.87;;;15.10;;
11098;SDS011;12223;42.650;23.364;2023-03-20T07:07:14;30.73;;;16.97;;
11098;SDS011;12223;42.650;23.364;2023-03-20T07:09:41;24.47;;;17.33;;
11098;SDS011;12223;42.650;23.364;2023-03-20T07:12:09;23.80;;;15.90;;
11098;SDS011;12223;42.650;23.364;2023-03-20T07:14:39;25.53;;;16.40;;
11098;SDS011;12223;42.650;23.364;2023-03-20T07:17:07;27.63;;;17.67;;
11098;SDS011;12223;42.650;23.364;2023-03-20T07:19:35;17.40;;;15.27;;
11098;SDS011;12223;42.650;23.364;2023-03-20T07:22:03;25.17;;;19.20;;
11098;SDS011;12223;42.650;23.364;2023-03-20T07:24:31;19.07;;;14.63;;
11098;SDS011;12223;42.650;23.364;2023-03-20T07:26:59;21.20;;;15.57;;
11098;SDS011;12223;42.650;23.364;2023-03-20T07:29:26;27.60;;;25.03;;
11098;SDS011;12223;42.650;23.364;2023-03-20T07:31:52;27.90;;;23.33;;
11098;SDS011;12223;42.650;23.364;2023-03-20T07:34:19;18.13;;;16.33;;
11098;SDS011;12223;42.650;23.364;2023-03-20T07:36:47;16.80;;;15.27;;
11098;SDS011;12223;42.650;23.364;2023-03-20T07:39:15;16.67;;;15.17;;
11098;SDS011;12223;42.650;23.364;2023-03-20T07:41:42;17.80;;;16.40;;
11098;SDS011;12223;42.650;23.364;2023-03-20T07:44:08;22.93;;;16.70;;
11098;SDS011;12223;42.650;23.364;2023-03-20T07:46:35;17.43;;;14.00;;
11098;SDS011;12223;42.650;23.364;2023-03-20T07:49:04;17.60;;;15.60;;
11098;SDS011;12223;42.650;23.364;2023-03-20T07:51:31;15.10;;;13.57;;
11098;SDS011;12223;42.650;23.364;2023-03-20T07:53:59;18.87;;;17.23;;
11098;SDS011;12223;42.650;23.364;2023-03-20T07:56:26;26.73;;;24.67;;
11098;SDS011;12223;42.650;23.364;2023-03-20T07:58:53;18.03;;;16.23;;
11098;SDS011;12223;42.650;23.364;2023-03-20T08:01:20;18.07;;;16.67;;
11098;SDS011;12223;42.650;23.364;2023-03-20T08:03:47;35.00;;;32.57;;
11098;SDS011;12223;42.650;23.364;2023-03-20T08:06:14;29.33;;;27.13;;
11098;SDS011;12223;42.650;23.364;2023-03-20T08:08:40;21.23;;;19.03;;
11098;SDS011;12223;42.650;23.364;2023-03-20T08:11:10;28.53;;;26.13;;
11098;SDS011;12223;42.650;23.364;2023-03-20T08:13:37;15.80;;;14.10;;
11098;SDS011;12223;42.650;23.364;2023-03-20T08:16:04;18.37;;;14.83;;
11098;SDS011;12223;42.650;23.364;2023-03-20T08:18:32;24.07;;;14.50;;
11098;SDS011;12223;42.650;23.364;2023-03-20T08:20:59;20.33;;;18.07;;
11098;SDS011;12223;42.650;23.364;2023-03-20T08:23:26;21.80;;;15.37;;
11098;SDS011;12223;42.650;23.364;2023-03-20T08:25:52;17.77;;;15.97;;
11098;SDS011;12223;42.650;23.364;2023-03-20T08:28:21;17.33;;;14.30;;
11098;SDS011;12223;42.650;23.364;2023-03-20T08:30:48;19.47;;;14.07;;
11098;SDS011;12223;42.650;23.364;2023-03-20T08:33:15;19.13;;;14.80;;
11098;SDS011;12223;42.650;23.364;2023-03-20T08:35:43;21.97;;;15.93;;
11098;SDS011;12223;42.650;23.364;2023-03-20T08:38:20;19.00;;;17.00;;
11098;SDS011;12223;42.650;23.364;2023-03-20T08:40:46;17.87;;;15.97;;
11098;SDS011;12223;42.650;23.364;2023-03-20T08:43:13;18.73;;;14.97;;
11098;SDS011;12223;42.650;23.364;2023-03-20T08:45:41;18.43;;;14.50;;
11098;SDS011;12223;42.650;23.364;2023-03-20T08:48:08;18.53;;;14.37;;
11098;SDS011;12223;42.650;23.364;2023-03-20T08:50:36;18.63;;;15.83;;
11098;SDS011;12223;42.650;23.364;2023-03-20T08:53:03;29.87;;;15.80;;
11098;SDS011;12223;42.650;23.364;2023-03-20T08:55:30;17.93;;;14.80;;
11098;SDS011;12223;42.650;23.364;2023-03-20T08:57:57;22.27;;;16.30;;
11098;SDS011;12223;42.650;23.364;2023-03-20T09:00:24;20.20;;;15.43;;
11098;SDS011;12223;42.650;23.364;2023-03-20T09:02:53;22.23;;;16.00;;
11098;SDS011;12223;42.650;23.364;2023-03-20T09:05:19;19.43;;;13.80;;
11098;SDS011;12223;42.650;23.364;2023-03-20T09:07:46;17.60;;;13.97;;
11098;SDS011;12223;42.650;23.364;2023-03-20T09:10:13;24.43;;;14.80;;
11098;SDS011;12223;42.650;23.364;2023-03-20T09:12:40;16.30;;;13.83;;
11098;SDS011;12223;42.650;23.364;2023-03-20T09:15:07;19.80;;;14.87;;
11098;SDS011;12223;42.650;23.364;2023-03-20T09:17:34;16.20;;;14.40;;
11098;SDS011;12223;42.650;23.364;2023-03-20T09:20:03;20.40;;;14.60;;
11098;SDS011;12223;42.650;23.364;2023-03-20T09:22:30;16.00;;;13.43;;
11098;SDS011;12223;42.650;23.364;2023-03-20T09:24:58;15.80;;;13.90;;
11098;SDS011;12223;42.650;23.364;2023-03-20T09:27:25;18.50;;;13.57;;
11098;SDS011;12223;42.650;23.364;2023-03-20T09:29:52;19.70;;;14.60;;
11098;SDS011;12223;42.650;23.364;2023-03-20T09:32:19;21.30;;;15.87;;
11098;SDS011;12223;42.650;23.364;2023-03-20T09:34:46;20.77;;;18.67;;
11098;SDS011;12223;42.650;23.364;2023-03-20T09:37:14;22.20;;;20.30;;
11098;SDS011;12223;42.650;23.364;2023-03-20T09:39:40;20.27;;;18.20;;
11098;SDS011;12223;42.650;23.364;2023-03-20T09:42:10;22.00;;;19.90;;
11098;SDS011;12223;42.650;23.364;2023-03-20T09:44:50;24.07;;;18.50;;
11098;SDS011;12223;42.650;23.364;2023-03-20T09:47:24;27.87;;;22.30;;
11098;SDS011;12223;42.650;23.364;2023-03-20T09:50:02;21.27;;;19.00;;
11098;SDS011;12223;42.650;23.364;2023-03-20T09:52:41;19.17;;;15.77;;
11098;SDS011;12223;42.650;23.364;2023-03-20T09:55:14;25.73;;;15.10;;
11098;SDS011;12223;42.650;23.364;2023-03-20T09:57:45;26.40;;;14.60;;
11098;SDS011;12223;42.650;23.364;2023-03-20T10:00:17;18.05;;;14.75;;
11098;SDS011;12223;42.650;23.364;2023-03-20T10:02:47;21.90;;;15.77;;
11098;SDS011;12223;42.650;23.364;2023-03-20T10:05:19;21.30;;;16.00;;
11098;SDS011;12223;42.650;23.364;2023-03-20T10:07:50;22.60;;;16.23;;
11098;SDS011;12223;42.650;23.364;2023-03-20T10:10:19;20.97;;;15.20;;
11098;SDS011;12223;42.650;23.364;2023-03-20T10:12:56;26.53;;;14.93;;
11098;SDS011;12223;42.650;23.364;2023-03-20T10:15:35;19.08;;;17.17;;
11098;SDS011;12223;42.650;23.364;2023-03-20T10:18:11;21.17;;;18.60;;
11098;SDS011;12223;42.650;23.364;2023-03-20T10:20:45;29.23;;;19.73;;
11098;SDS011;12223;42.650;23.364;2023-03-20T10:23:21;21.35;;;18.98;;
11098;SDS011;12223;42.650;23.364;2023-03-20T10:25:57;22.75;;;20.42;;
11098;SDS011;12223;42.650;23.364;2023-03-20T10:28:29;24.08;;;18.42;;
11098;SDS011;12223;42.650;23.364;2023-03-20T10:31:04;25.98;;;18.00;;
11098;SDS011;12223;42.650;23.364;2023-03-20T10:33:45;20.67;;;17.20;;
11098;SDS011;12223;42.650;23.364;2023-03-20T10:36:29;31.50;;;17.70;;
11098;SDS011;12223;42.650;23.364;2023-03-20T10:39:11;22.58;;;16.08;;
11098;SDS011;12223;42.650;23.364;2023-03-20T10:41:46;19.63;;;15.65;;
11098;SDS011;12223;42.650;23.364;2023-03-20T10:44:21;24.40;;;19.92;;
11098;SDS011;12223;42.650;23.364;2023-03-20T10:46:54;25.05;;;19.27;;
11098;SDS011;12223;42.650;23.364;2023-03-20T10:49:26;19.55;;;16.98;;
11098;SDS011;12223;42.650;23.364;2023-03-20T10:52:00;23.05;;;17.23;;
11098;SDS011;12223;42.650;23.364;2023-03-20T10:54:32;22.60;;;17.35;;
11098;SDS011;12223;42.650;23.364;2023-03-20T10:57:01;21.40;;;16.70;;
11098;SDS011;12223;42.650;23.364;2023-03-20T10:59:31;18.95;;;15.05;;
11098;SDS011;12223;42.650;23.364;2023-03-20T11:02:06;22.52;;;17.55;;
11098;SDS011;12223;42.650;23.364;2023-03-20T11:04:35;24.88;;;16.75;;
11098;SDS011;12223;42.650;23.364;2023-03-20T11:07:04;23.63;;;17.70;;
11098;SDS011;12223;42.650;23.364;2023-03-20T11:09:39;22.02;;;16.27;;
11098;SDS011;12223;42.650;23.364;2023-03-20T11:12:12;22.30;;;16.33;;
11098;SDS011;12223;42.650;23.364;2023-03-20T11:14:42;22.15;;;16.73;;
11098;SDS011;12223;42.650;23.364;2023-03-20T11:17:09;20.80;;;17.95;;
11098;SDS011;12223;42.650;23.364;2023-03-20T11:19:37;20.67;;;17.70;;
11098;SDS011;12223;42.650;23.364;2023-03-20T11:22:06;24.38;;;17.65;;
11098;SDS011;12223;42.650;23.364;2023-03-20T11:24:35;21.45;;;18.77;;
11098;SDS011;12223;42.650;23.364;2023-03-20T11:27:08;19.63;;;17.52;;
11098;SDS011;12223;42.650;23.364;2023-03-20T11:29:36;19.67;;;16.60;;
11098;SDS011;12223;42.650;23.364;2023-03-20T11:32:06;24.42;;;16.23;;
11098;SDS011;12223;42.650;23.364;2023-03-20T11:34:44;18.63;;;14.40;;
11098;SDS011;12223;42.650;23.364;2023-03-20T11:37:20;16.23;;;14.52;;
11098;SDS011;12223;42.650;23.364;2023-03-20T11:39:55;26.02;;;15.65;;
11098;SDS011;12223;42.650;23.364;2023-03-20T11:42:26;22.63;;;16.27;;
11098;SDS011;12223;42.650;23.364;2023-03-20T11:44:58;17.92;;;15.40;;
11098;SDS011;12223;42.650;23.364;2023-03-20T11:47:27;23.98;;;16.42;;
11098;SDS011;12223;42.650;23.364;2023-03-20T11:49:58;21.10;;;18.83;;
11098;SDS011;12223;42.650;23.364;2023-03-20T11:52:28;16.98;;;15.07;;
11098;SDS011;12223;42.650;23.364;2023-03-20T11:54:58;18.38;;;14.27;;
11098;SDS011;12223;42.650;23.364;2023-03-20T11:57:30;15.38;;;13.88;;
11098;SDS011;12223;42.650;23.364;2023-03-20T12:00:00;17.02;;;14.60;;
11098;SDS011;12223;42.650;23.364;2023-03-20T12:02:30;15.13;;;13.63;;
11098;SDS011;12223;42.650;23.364;2023-03-20T12:04:58;17.10;;;14.20;;
11098;SDS011;12223;42.650;23.364;2023-03-20T12:07:26;15.88;;;13.95;;
11098;SDS011;12223;42.650;23.364;2023-03-20T12:09:57;14.98;;;13.30;;
11098;SDS011;12223;42.650;23.364;2023-03-20T12:12:35;18.45;;;14.25;;
11098;SDS011;12223;42.650;23.364;2023-03-20T12:15:08;19.35;;;13.35;;
11098;SDS011;12223;42.650;23.364;2023-03-20T12:17:45;18.40;;;14.00;;
11098;SDS011;12223;42.650;23.364;2023-03-20T12:20:25;19.33;;;15.05;;
11098;SDS011;12223;42.650;23.364;2023-03-20T12:23:00;19.23;;;15.02;;
11098;SDS011;12223;42.650;23.364;2023-03-20T12:25:36;18.85;;;16.85;;
11098;SDS011;12223;42.650;23.364;2023-03-20T12:28:11;18.73;;;15.75;;
11098;SDS011;12223;42.650;23.364;2023-03-20T12:30:47;16.92;;;15.15;;
11098;SDS011;12223;42.650;23.364;2023-03-20T12:33:26;17.83;;;14.02;;
11098;SDS011;12223;42.650;23.364;2023-03-20T12:36:11;16.40;;;13.27;;
11098;SDS011;12223;42.650;23.364;2023-03-20T12:38:41;15.00;;;13.25;;
11098;SDS011;12223;42.650;23.364;2023-03-20T12:41:10;17.27;;;13.00;;
11098;SDS011;12223;42.650;23.364;2023-03-20T12:43:43;13.70;;;12.05;;
11098;SDS011;12223;42.650;23.364;2023-03-20T12:46:25;18.70;;;14.02;;
11098;SDS011;12223;42.650;23.364;2023-03-20T12:49:03;14.40;;;12.93;;
11098;SDS011;12223;42.650;23.364;2023-03-20T12:51:40;26.17;;;11.38;;
11098;SDS011;12223;42.650;23.364;2023-03-20T12:54:19;14.32;;;11.88;;
11098;SDS011;12223;42.650;23.364;2023-03-20T12:57:05;16.67;;;12.20;;
11098;SDS011;12223;42.650;23.364;2023-03-20T12:59:49;13.68;;;12.32;;
11098;SDS011;12223;42.650;23.364;2023-03-20T13:02:29;18.02;;;12.25;;
11098;SDS011;12223;42.650;23.364;2023-03-20T13:05:06;15.40;;;11.50;;
11098;SDS011;12223;42.650;23.364;2023-03-20T13:07:50;14.52;;;10.70;;
11098;SDS011;12223;42.650;23.364;2023-03-20T13:10:27;11.63;;;10.43;;
11098;SDS011;12223;42.650;23.364;2023-03-20T13:13:02;10.38;;;9.38;;
11098;SDS011;12223;42.650;23.364;2023-03-20T13:15:46;9.38;;;8.57;;
11098;SDS011;12223;42.650;23.364;2023-03-20T13:18:24;10.60;;;9.63;;
11098;SDS011;12223;42.650;23.364;2023-03-20T13:21:00;11.25;;;10.25;;
11098;SDS011;12223;42.650;23.364;2023-03-20T13:23:36;10.43;;;9.60;;
11098;SDS011;12223;42.650;23.364;2023-03-20T13:26:15;10.45;;;9.45;;
11098;SDS011;12223;42.650;23.364;2023-03-20T13:28:54;13.05;;;9.20;;
11098;SDS011;12223;42.650;23.364;2023-03-20T13:31:44;11.50;;;9.25;;
11098;SDS011;12223;42.650;23.364;2023-03-20T13:34:26;8.45;;;7.63;;
11098;SDS011;12223;42.650;23.364;2023-03-20T13:37:10;9.10;;;8.13;;
11098;SDS011;12223;42.650;23.364;2023-03-20T13:39:43;9.07;;;8.18;;
11098;SDS011;12223;42.650;23.364;2023-03-20T13:42:14;9.10;;;8.27;;
11098;SDS011;12223;42.650;23.364;2023-03-20T13:44:45;9.15;;;8.35;;
11098;SDS011;12223;42.650;23.364;2023-03-20T13:47:19;8.68;;;8.05;;
11098;SDS011;12223;42.650;23.364;2023-03-20T13:49:51;9.40;;;8.43;;
11098;SDS011;12223;42.650;23.364;2023-03-20T13:52:24;9.10;;;8.40;;
11098;SDS011;12223;42.650;23.364;2023-03-20T13:55:01;12.75;;;8.20;;
11098;SDS011;12223;42.650;23.364;2023-03-20T14:00:34;9.35;;;8.38;;
11098;SDS011;12223;42.650;23.364;2023-03-20T14:03:14;9.65;;;8.82;;
11098;SDS011;12223;42.650;23.364;2023-03-20T14:05:47;9.57;;;8.85;;
11098;SDS011;12223;42.650;23.364;2023-03-20T14:08:29;9.10;;;8.30;;
11098;SDS011;12223;42.650;23.364;2023-03-20T14:11:13;8.65;;;7.95;;
11098;SDS011;12223;42.650;23.364;2023-03-20T14:14:02;8.38;;;7.68;;
11098;SDS011;12223;42.650;23.364;2023-03-20T14:16:36;8.95;;;8.27;;
11098;SDS011;12223;42.650;23.364;2023-03-20T14:19:13;9.43;;;8.40;;
11098;SDS011;12223;42.650;23.364;2023-03-20T14:21:43;10.50;;;8.32;;
11098;SDS011;12223;42.650;23.364;2023-03-20T14:24:14;9.88;;;8.98;;
11098;SDS011;12223;42.650;23.364;2023-03-20T14:26:46;10.43;;;9.48;;
11098;SDS011;12223;42.650;23.364;2023-03-20T14:29:20;10.82;;;9.73;;
11098;SDS011;12223;42.650;23.364;2023-03-20T14:32:01;18.88;;;9.40;;
11098;SDS011;12223;42.650;23.364;2023-03-20T14:34:45;10.10;;;8.77;;
11098;SDS011;12223;42.650;23.364;2023-03-20T14:37:26;9.23;;;8.35;;
11098;SDS011;12223;42.650;23.364;2023-03-20T14:39:58;10.98;;;9.90;;
11098;SDS011;12223;42.650;23.364;2023-03-20T14:42:35;17.73;;;11.10;;
11098;SDS011;12223;42.650;23.364;2023-03-20T14:45:12;13.57;;;10.75;;